Time;durP1;ratioP1;P1;durP2;ratioP2;P2;SDS_P1;SDS_P2;PMS_P1;PMS_P2;Temp;Humidity;BMP_temperature;BMP_pressure;BME280_temperature;BME280_humidity;BME280_pressure;Samples;Min_cycle;Max_cycle;Signal;HPM_P1;HPM_P2
2023/08/14 20:28:47;;;;;;;10.38;9.40;;;23.00;99.90;;;;;;4875221;29;21002;-83
2023/08/14 20:31:20;;;;;;;12.48;9.77;;;23.00;99.90;;;;;;4884391;29;20832;-82
2023/08/14 20:33:46;;;;;;;11.35;10.15;;;22.90;99.90;;;;;;4866089;29;20435;-82
2023/08/14 20:36:20;;;;;;;9.83;8.93;;;22.90;99.90;;;;;;4889892;29;20407;-84
2023/08/14 20:38:46;;;;;;;9.48;8.57;;;22.90;99.90;;;;;;4877764;29;20458;-83
2023/08/14 20:41:11;;;;;;;11.90;9.37;;;23.90;99.90;;;;;;4883553;29;20406;-82
2023/08/14 20:43:37;;;;;;;10.70;9.30;;;21.70;99.90;;;;;;4906572;23;20452;-82
2023/08/14 20:46:02;;;;;;;10.47;9.43;;;22.00;99.90;;;;;;4894157;29;20736;-82
2023/08/14 20:48:28;;;;;;;9.68;8.68;;;22.50;99.90;;;;;;4903232;29;20915;-82
2023/08/14 20:50:54;;;;;;;10.27;9.37;;;22.80;99.90;;;;;;4902755;29;20458;-82
2023/08/14 20:53:19;;;;;;;10.93;9.65;;;22.70;99.90;;;;;;4893668;29;20404;-79
2023/08/14 20:55:45;;;;;;;9.60;8.70;;;22.70;99.90;;;;;;4885502;29;20393;-80
2023/08/14 20:58:11;;;;;;;9.70;8.80;;;22.40;99.90;;;;;;4884973;29;20429;-80
2023/08/14 21:00:36;;;;;;;9.73;8.82;;;22.70;99.90;;;;;;4885441;29;20404;-80
2023/08/14 21:03:02;;;;;;;9.40;8.60;;;22.60;99.90;;;;;;4885003;29;20401;-80
2023/08/14 21:05:29;;;;;;;9.15;8.27;;;22.60;99.90;;;;;;4885883;29;20430;-81
2023/08/14 21:07:54;;;;;;;9.75;8.77;;;23.00;99.90;;;;;;4889994;29;20404;-80
2023/08/14 21:10:20;;;;;;;9.53;8.73;;;24.20;99.90;;;;;;4895757;29;20416;-80
2023/08/14 21:12:45;;;;;;;9.90;8.90;;;22.50;99.90;;;;;;4891075;29;20411;-80
2023/08/14 21:15:11;;;;;;;10.10;9.20;;;23.90;99.90;;;;;;4888982;29;20392;-81
2023/08/14 21:17:36;;;;;;;11.77;8.98;;;23.00;99.90;;;;;;4885731;29;20494;-81
2023/08/14 21:20:03;;;;;;;9.90;9.00;;;22.50;99.90;;;;;;4886624;29;20408;-81
2023/08/14 21:22:29;;;;;;;10.10;9.30;;;22.50;99.90;;;;;;4884826;29;20830;-81
2023/08/14 21:24:55;;;;;;;10.07;9.18;;;22.50;99.90;;;;;;4886335;29;20532;-81
2023/08/14 21:27:20;;;;;;;9.90;8.60;;;23.00;99.90;;;;;;4885580;29;20464;-81
2023/08/14 21:29:46;;;;;;;9.50;8.70;;;22.50;99.90;;;;;;4882904;29;20423;-80
2023/08/14 21:32:12;;;;;;;8.77;7.88;;;22.50;99.90;;;;;;4883076;29;20457;-81
2023/08/14 21:34:40;;;;;;;9.03;8.13;;;22.50;99.90;;;;;;4884838;29;20794;-81
2023/08/14 21:37:06;;;;;;;9.30;8.30;;;22.50;99.90;;;;;;4883023;29;20500;-81
2023/08/14 21:39:31;;;;;;;9.77;8.85;;;21.90;99.90;;;;;;4885363;29;20415;-81
2023/08/14 21:41:58;;;;;;;9.23;8.32;;;22.80;99.90;;;;;;4886239;29;20401;-81
2023/08/14 21:44:24;;;;;;;10.75;8.80;;;22.40;99.90;;;;;;4886236;29;20497;-80
2023/08/14 21:46:49;;;;;;;9.60;8.70;;;21.80;99.90;;;;;;4881876;29;20409;-80
2023/08/14 21:49:15;;;;;;;9.33;8.43;;;22.40;99.90;;;;;;4885033;29;20419;-80
2023/08/14 21:51:40;;;;;;;9.40;8.50;;;22.30;99.90;;;;;;4891370;29;20404;-81
2023/08/14 21:54:07;;;;;;;9.07;8.17;;;22.00;99.90;;;;;;4889652;29;20402;-81
2023/08/14 21:56:32;;;;;;;12.00;8.80;;;22.00;99.90;;;;;;4887845;29;20699;-80
2023/08/14 21:58:58;;;;;;;9.80;8.80;;;22.20;99.90;;;;;;4888127;29;20475;-81
2023/08/14 22:01:23;;;;;;;10.30;8.90;;;22.50;99.90;;;;;;4891329;29;20408;-80
2023/08/14 22:03:49;;;;;;;10.20;9.20;;;21.80;99.90;;;;;;4890763;29;20451;-80
2023/08/14 22:06:14;;;;;;;9.45;8.50;;;21.80;99.90;;;;;;4887510;29;20410;-80
2023/08/14 22:08:40;;;;;;;9.90;9.10;;;22.10;99.90;;;;;;4889305;29;20407;-80
2023/08/14 22:11:05;;;;;;;10.07;8.97;;;22.20;99.90;;;;;;4887171;29;20425;-81
2023/08/14 22:13:31;;;;;;;9.27;8.47;;;21.90;99.90;;;;;;4888553;29;20415;-80
2023/08/14 22:15:56;;;;;;;12.17;9.40;;;21.80;99.90;;;;;;4889663;29;20470;-80
2023/08/14 22:18:22;;;;;;;10.27;9.40;;;22.00;99.90;;;;;;4891822;29;20407;-81
2023/08/14 22:20:52;;;;;;;9.53;8.63;;;22.00;99.90;;;;;;4893596;29;20450;-80
2023/08/14 22:23:18;;;;;;;10.95;8.70;;;22.00;99.90;;;;;;4891537;29;20393;-80
2023/08/14 22:25:43;;;;;;;9.67;8.77;;;21.90;99.90;;;;;;4891473;29;20979;-80
2023/08/14 22:28:09;;;;;;;13.40;9.73;;;22.00;99.90;;;;;;4891044;29;20535;-81
2023/08/14 22:30:34;;;;;;;9.70;8.80;;;21.40;99.90;;;;;;4887210;29;20501;-80
2023/08/14 22:33:00;;;;;;;9.53;8.53;;;21.80;99.90;;;;;;4893425;29;20410;-80
2023/08/14 22:35:25;;;;;;;10.43;9.32;;;22.10;99.90;;;;;;4889725;29;20398;-81
2023/08/14 22:37:51;;;;;;;9.90;9.00;;;21.70;99.90;;;;;;4892473;29;20406;-80
2023/08/14 22:40:17;;;;;;;10.17;9.23;;;21.80;99.90;;;;;;4891424;29;20513;-80
2023/08/14 22:42:42;;;;;;;11.10;9.10;;;21.10;99.90;;;;;;4892683;29;20412;-80
2023/08/14 22:45:08;;;;;;;10.20;9.30;;;21.80;99.90;;;;;;4891287;29;20409;-80
2023/08/14 22:47:35;;;;;;;11.35;9.95;;;21.70;99.90;;;;;;4883624;29;20507;-80
2023/08/14 22:50:00;;;;;;;10.82;8.80;;;21.70;99.90;;;;;;4884498;29;20508;-80
2023/08/14 22:52:26;;;;;;;11.07;9.75;;;21.10;99.90;;;;;;4884510;29;20408;-80
2023/08/14 22:54:51;;;;;;;9.33;8.53;;;21.70;99.90;;;;;;4882351;29;20389;-80
2023/08/14 22:57:17;;;;;;;10.73;9.70;;;21.60;99.90;;;;;;4883467;29;20481;-80
2023/08/14 22:59:42;;;;;;;10.47;9.33;;;21.20;99.90;;;;;;4882913;29;20393;-79
2023/08/14 23:02:08;;;;;;;10.38;9.48;;;20.90;99.90;;;;;;4877621;29;20781;-80
2023/08/14 23:04:33;;;;;;;9.90;9.00;;;21.50;99.90;;;;;;4870066;29;20918;-80
2023/08/14 23:06:59;;;;;;;10.40;9.48;;;21.10;99.90;;;;;;4865718;29;20403;-80
2023/08/14 23:09:24;;;;;;;10.00;8.70;;;21.60;99.90;;;;;;4865090;29;20406;-80
2023/08/14 23:11:50;;;;;;;10.70;9.60;;;21.10;99.90;;;;;;4872346;29;20405;-80
2023/08/14 23:14:15;;;;;;;9.73;8.77;;;21.50;99.90;;;;;;4873776;29;20410;-79
2023/08/14 23:16:41;;;;;;;10.30;9.40;;;21.10;99.90;;;;;;4891137;29;20414;-80
2023/08/14 23:19:06;;;;;;;8.93;8.13;;;21.50;99.90;;;;;;4878798;29;20406;-80
2023/08/14 23:21:32;;;;;;;9.43;8.43;;;21.40;99.90;;;;;;4866882;29;20457;-80
2023/08/14 23:23:58;;;;;;;12.23;9.17;;;21.70;99.90;;;;;;4867231;29;20414;-80
2023/08/14 23:26:24;;;;;;;9.60;8.70;;;21.50;99.90;;;;;;4866684;29;20493;-80
2023/08/14 23:28:49;;;;;;;10.87;9.87;;;21.50;99.90;;;;;;4883576;29;20413;-80
2023/08/14 23:31:15;;;;;;;9.25;8.35;;;21.40;99.90;;;;;;4867322;29;20422;-80
2023/08/14 23:33:41;;;;;;;9.93;9.02;;;22.10;99.90;;;;;;4866850;29;20421;-80
2023/08/14 23:36:06;;;;;;;11.37;9.70;;;20.50;99.90;;;;;;4866561;29;20398;-80
2023/08/14 23:38:32;;;;;;;10.05;8.95;;;20.90;99.90;;;;;;4866132;29;20394;-79
2023/08/14 23:40:57;;;;;;;9.80;9.00;;;21.70;99.90;;;;;;4893312;29;20405;-80
2023/08/14 23:43:23;;;;;;;10.65;9.55;;;21.40;99.90;;;;;;4883958;29;20493;-80
2023/08/14 23:45:48;;;;;;;10.53;9.43;;;21.30;99.90;;;;;;4876496;29;20433;-80
2023/08/14 23:48:14;;;;;;;10.55;9.55;;;21.00;99.90;;;;;;4884729;29;20401;-80
2023/08/14 23:50:40;;;;;;;10.53;9.53;;;21.30;99.90;;;;;;4884227;29;20813;-82
2023/08/14 23:53:06;;;;;;;10.20;9.40;;;20.80;99.90;;;;;;4880992;29;20410;-80
2023/08/14 23:55:31;;;;;;;9.80;9.00;;;21.30;99.90;;;;;;4866084;29;20400;-80
2023/08/14 23:57:57;;;;;;;12.40;9.00;;;22.30;99.90;;;;;;4873374;29;20436;-80
